Aviation Digital Data Service (ADDS)

Output produced by METARs form (0529 UTC 19 March 2019)
found at http://www.aviationweather.gov/metar/data/
 
METAR text: ULLI 190500Z 14004MPS 9999 BKN007 02/01 Q1008 R88/290050 NOSIG RMK OBST OBSC
Conditions at: ULLI (ST PETERSBURG , RU) observed 0500 UTC 19 March 2019
Temperature: 2.0°C (36°F)
Dewpoint: 1.0°C (34°F) [RH = 93%]
Pressure (altimeter): 29.76 inches Hg (1008.0 mb)
Winds: from the SE (140 degrees) at 9 MPH (8 knots; 4.1 m/s)
Visibility: 6 or more miles (10+ km)
Ceiling: 700 feet AGL
Clouds: broken clouds at 700 feet AGL
Weather: no significant weather observed at this time

METAR text: ULLI 190430Z 14004MPS 9999 SCT006 02/01 Q1008 R10R/290050 NOSIG RMK OBST OBSC
Conditions at: ULLI (ST PETERSBURG , RU) observed 0430 UTC 19 March 2019
Temperature: 2.0°C (36°F)
Dewpoint: 1.0°C (34°F) [RH = 93%]
Pressure (altimeter): 29.76 inches Hg (1008.0 mb)
Winds: from the SE (140 degrees) at 9 MPH (8 knots; 4.1 m/s)
Visibility: 6 or more miles (10+ km)
Ceiling: at least 12,000 feet AGL
Clouds: scattered clouds at 600 feet AGL
Weather: no significant weather observed at this time

METAR text: ULLI 190400Z 15003MPS 120V190 9999 BKN007 02/01 Q1008 R10R/290050 NOSIG RMK OBST OBSC
Conditions at: ULLI (ST PETERSBURG , RU) observed 0400 UTC 19 March 2019
Temperature: 2.0°C (36°F)
Dewpoint: 1.0°C (34°F) [RH = 93%]
Pressure (altimeter): 29.76 inches Hg (1008.0 mb)
Winds: from the SSE (150 degrees) at 7 MPH (6 knots; 3.1 m/s)
Visibility: 6 or more miles (10+ km)
Ceiling: 700 feet AGL
Clouds: broken clouds at 700 feet AGL
Weather: no significant weather observed at this time

METAR text: ULLI 190330Z 16003MPS 120V200 9999 OVC007 02/00 Q1008 R10R/290050 NOSIG
Conditions at: ULLI (ST PETERSBURG , RU) observed 0330 UTC 19 March 2019
Temperature: 2.0°C (36°F)
Dewpoint: 0.0°C (32°F) [RH = 87%]
Pressure (altimeter): 29.76 inches Hg (1008.0 mb)
Winds: from the SSE (160 degrees) at 7 MPH (6 knots; 3.1 m/s)
Visibility: 6 or more miles (10+ km)
Ceiling: 700 feet AGL
Clouds: overcast cloud deck at 700 feet AGL
Weather: no significant weather observed at this time

METAR text: ULLI 190300Z 17003MPS 120V220 9999 OVC007 02/01 Q1008 R10R/290050 NOSIG RMK OBST OBSC
Conditions at: ULLI (ST PETERSBURG , RU) observed 0300 UTC 19 March 2019
Temperature: 2.0°C (36°F)
Dewpoint: 1.0°C (34°F) [RH = 93%]
Pressure (altimeter): 29.76 inches Hg (1008.0 mb)
Winds: from the S (170 degrees) at 7 MPH (6 knots; 3.1 m/s)
Visibility: 6 or more miles (10+ km)
Ceiling: 700 feet AGL
Clouds: overcast cloud deck at 700 feet AGL
Weather: no significant weather observed at this time

METAR text: ULLI 190230Z 16003MPS 120V200 9999 OVC005 02/01 Q1008 R10R/290050 NOSIG RMK OBST OBSC
Conditions at: ULLI (ST PETERSBURG , RU) observed 0230 UTC 19 March 2019
Temperature: 2.0°C (36°F)
Dewpoint: 1.0°C (34°F) [RH = 93%]
Pressure (altimeter): 29.76 inches Hg (1008.0 mb)
Winds: from the SSE (160 degrees) at 7 MPH (6 knots; 3.1 m/s)
Visibility: 6 or more miles (10+ km)
Ceiling: 500 feet AGL
Clouds: overcast cloud deck at 500 feet AGL
Weather: no significant weather observed at this time

METAR text: ULLI 190200Z 17003MPS 130V200 9999 BKN005 02/01 Q1008 R28L/290050 NOSIG RMK OBST OBSC
Conditions at: ULLI (ST PETERSBURG , RU) observed 0200 UTC 19 March 2019
Temperature: 2.0°C (36°F)
Dewpoint: 1.0°C (34°F) [RH = 93%]
Pressure (altimeter): 29.76 inches Hg (1008.0 mb)
Winds: from the S (170 degrees) at 7 MPH (6 knots; 3.1 m/s)
Visibility: 6 or more miles (10+ km)
Ceiling: 500 feet AGL
Clouds: broken clouds at 500 feet AGL
Weather: no significant weather observed at this time

METAR text: ULLI 190130Z 18004MPS 140V220 9999 BKN005 02/01 Q1008 R28L/290050 NOSIG RMK OBST OBSC
Conditions at: ULLI (ST PETERSBURG , RU) observed 0130 UTC 19 March 2019
Temperature: 2.0°C (36°F)
Dewpoint: 1.0°C (34°F) [RH = 93%]
Pressure (altimeter): 29.76 inches Hg (1008.0 mb)
Winds: from the S (180 degrees) at 9 MPH (8 knots; 4.1 m/s)
Visibility: 6 or more miles (10+ km)
Ceiling: 500 feet AGL
Clouds: broken clouds at 500 feet AGL
Weather: no significant weather observed at this time

METAR text: ULLI 190100Z 18005MPS 9999 BKN005 02/01 Q1008 R88/290050 NOSIG RMK OBST OBSC
Conditions at: ULLI (ST PETERSBURG , RU) observed 0100 UTC 19 March 2019
Temperature: 2.0°C (36°F)
Dewpoint: 1.0°C (34°F) [RH = 93%]
Pressure (altimeter): 29.76 inches Hg (1008.0 mb)
Winds: from the S (180 degrees) at 12 MPH (10 knots; 5.1 m/s)
Visibility: 6 or more miles (10+ km)
Ceiling: 500 feet AGL
Clouds: broken clouds at 500 feet AGL
Weather: no significant weather observed at this time

METAR text: ULLI 190030Z 17004MPS 140V220 9999 BKN008 02/01 Q1008 R88/290050 NOSIG
Conditions at: ULLI (ST PETERSBURG , RU) observed 0030 UTC 19 March 2019
Temperature: 2.0°C (36°F)
Dewpoint: 1.0°C (34°F) [RH = 93%]
Pressure (altimeter): 29.76 inches Hg (1008.0 mb)
Winds: from the S (170 degrees) at 9 MPH (8 knots; 4.1 m/s)
Visibility: 6 or more miles (10+ km)
Ceiling: 800 feet AGL
Clouds: broken clouds at 800 feet AGL
Weather: no significant weather observed at this time

METAR text: ULLI 190000Z 18005MPS 9999 BKN007 02/01 Q1008 R88/290050 NOSIG RMK OBST OBSC
Conditions at: ULLI (ST PETERSBURG , RU) observed 0000 UTC 19 March 2019
Temperature: 2.0°C (36°F)
Dewpoint: 1.0°C (34°F) [RH = 93%]
Pressure (altimeter): 29.76 inches Hg (1008.0 mb)
Winds: from the S (180 degrees) at 12 MPH (10 knots; 5.1 m/s)
Visibility: 6 or more miles (10+ km)
Ceiling: 700 feet AGL
Clouds: broken clouds at 700 feet AGL
Weather: no significant weather observed at this time

METAR text: ULLI 182330Z 19006MPS 9999 BKN007 02/01 Q1008 R88/290050 NOSIG RMK OBST OBSC
Conditions at: ULLI (ST PETERSBURG , RU) observed 2330 UTC 18 March 2019
Temperature: 2.0°C (36°F)
Dewpoint: 1.0°C (34°F) [RH = 93%]
Pressure (altimeter): 29.76 inches Hg (1008.0 mb)
Winds: from the S (190 degrees) at 14 MPH (12 knots; 6.2 m/s)
Visibility: 6 or more miles (10+ km)
Ceiling: 700 feet AGL
Clouds: broken clouds at 700 feet AGL
Weather: no significant weather observed at this time

METAR text: ULLI 182300Z 19006MPS 9999 FEW006 SCT016 02/01 Q1008 R88/290050 NOSIG RMK OBST OBSC
Conditions at: ULLI (ST PETERSBURG , RU) observed 2300 UTC 18 March 2019
Temperature: 2.0°C (36°F)
Dewpoint: 1.0°C (34°F) [RH = 93%]
Pressure (altimeter): 29.76 inches Hg (1008.0 mb)
Winds: from the S (190 degrees) at 14 MPH (12 knots; 6.2 m/s)
Visibility: 6 or more miles (10+ km)
Ceiling: at least 12,000 feet AGL
Clouds: few clouds at 600 feet AGL
scattered clouds at 1600 feet AGL
Weather: no significant weather observed at this time

METAR text: ULLI 182230Z 20007MPS 9999 FEW007 02/01 Q1008 R88/290050 NOSIG RMK OBST OBSC
Conditions at: ULLI (ST PETERSBURG , RU) observed 2230 UTC 18 March 2019
Temperature: 2.0°C (36°F)
Dewpoint: 1.0°C (34°F) [RH = 93%]
Pressure (altimeter): 29.76 inches Hg (1008.0 mb)
Winds: from the SSW (200 degrees) at 16 MPH (14 knots; 7.2 m/s)
Visibility: 6 or more miles (10+ km)
Ceiling: at least 12,000 feet AGL
Clouds: few clouds at 700 feet AGL
Weather: no significant weather observed at this time

METAR text: ULLI 182200Z 19007MPS 9999 SCT006 02/01 Q1007 R88/290050 NOSIG RMK OBST OBSC
Conditions at: ULLI (ST PETERSBURG , RU) observed 2200 UTC 18 March 2019
Temperature: 2.0°C (36°F)
Dewpoint: 1.0°C (34°F) [RH = 93%]
Pressure (altimeter): 29.73 inches Hg (1007.0 mb)
Winds: from the S (190 degrees) at 16 MPH (14 knots; 7.2 m/s)
Visibility: 6 or more miles (10+ km)
Ceiling: at least 12,000 feet AGL
Clouds: scattered clouds at 600 feet AGL
Weather: no significant weather observed at this time

METAR text: ULLI 182130Z 18004MPS 140V240 9999 BKN007 02/01 Q1007 R28L/290050 NOSIG RMK OBST OBSC
Conditions at: ULLI (ST PETERSBURG , RU) observed 2130 UTC 18 March 2019
Temperature: 2.0°C (36°F)
Dewpoint: 1.0°C (34°F) [RH = 93%]
Pressure (altimeter): 29.73 inches Hg (1007.0 mb)
Winds: from the S (180 degrees) at 9 MPH (8 knots; 4.1 m/s)
Visibility: 6 or more miles (10+ km)
Ceiling: 700 feet AGL
Clouds: broken clouds at 700 feet AGL
Weather: no significant weather observed at this time

METAR text: ULLI 182100Z 19004MPS 110V280 CAVOK 02/01 Q1007 R28L/290050 NOSIG
Conditions at: ULLI (ST PETERSBURG , RU) observed 2100 UTC 18 March 2019
Temperature: 2.0°C (36°F)
Dewpoint: 1.0°C (34°F) [RH = 93%]
Pressure (altimeter): 29.73 inches Hg (1007.0 mb)
Winds: from the S (190 degrees) at 9 MPH (8 knots; 4.1 m/s)
Visibility: 6 or more miles (10+ km)
Ceiling: ceiling and visibility are OK
Clouds: unknown
Weather: no significant weather observed at this time

METAR text: ULLI 182030Z 19003MPS 130V250 CAVOK 02/01 Q1007 R28L/290050 NOSIG
Conditions at: ULLI (ST PETERSBURG , RU) observed 2030 UTC 18 March 2019
Temperature: 2.0°C (36°F)
Dewpoint: 1.0°C (34°F) [RH = 93%]
Pressure (altimeter): 29.73 inches Hg (1007.0 mb)
Winds: from the S (190 degrees) at 7 MPH (6 knots; 3.1 m/s)
Visibility: 6 or more miles (10+ km)
Ceiling: ceiling and visibility are OK
Clouds: unknown
Weather: no significant weather observed at this time

METAR text: ULLI 182000Z 20002MPS 120V250 CAVOK 02/01 Q1007 R28L/290050 NOSIG
Conditions at: ULLI (ST PETERSBURG , RU) observed 2000 UTC 18 March 2019
Temperature: 2.0°C (36°F)
Dewpoint: 1.0°C (34°F) [RH = 93%]
Pressure (altimeter): 29.73 inches Hg (1007.0 mb)
Winds: from the SSW (200 degrees) at 5 MPH (4 knots; 2.1 m/s)
Visibility: 6 or more miles (10+ km)
Ceiling: ceiling and visibility are OK
Clouds: unknown
Weather: no significant weather observed at this time

METAR text: ULLI 181930Z 19003MPS 100V260 CAVOK 02/01 Q1007 R28L/290050 NOSIG
Conditions at: ULLI (ST PETERSBURG , RU) observed 1930 UTC 18 March 2019
Temperature: 2.0°C (36°F)
Dewpoint: 1.0°C (34°F) [RH = 93%]
Pressure (altimeter): 29.73 inches Hg (1007.0 mb)
Winds: from the S (190 degrees) at 7 MPH (6 knots; 3.1 m/s)
Visibility: 6 or more miles (10+ km)
Ceiling: ceiling and visibility are OK
Clouds: unknown
Weather: no significant weather observed at this time

METAR text: ULLI 181900Z 19002MPS 130V290 CAVOK 02/01 Q1007 R28L/290050 NOSIG
Conditions at: ULLI (ST PETERSBURG , RU) observed 1900 UTC 18 March 2019
Temperature: 2.0°C (36°F)
Dewpoint: 1.0°C (34°F) [RH = 93%]
Pressure (altimeter): 29.73 inches Hg (1007.0 mb)
Winds: from the S (190 degrees) at 5 MPH (4 knots; 2.1 m/s)
Visibility: 6 or more miles (10+ km)
Ceiling: ceiling and visibility are OK
Clouds: unknown
Weather: no significant weather observed at this time

METAR text: ULLI 181830Z 19002MPS 130V260 9999 FEW010 SCT021 02/01 Q1007 R28L/290050 NOSIG
Conditions at: ULLI (ST PETERSBURG , RU) observed 1830 UTC 18 March 2019
Temperature: 2.0°C (36°F)
Dewpoint: 1.0°C (34°F) [RH = 93%]
Pressure (altimeter): 29.73 inches Hg (1007.0 mb)
Winds: from the S (190 degrees) at 5 MPH (4 knots; 2.1 m/s)
Visibility: 6 or more miles (10+ km)
Ceiling: at least 12,000 feet AGL
Clouds: few clouds at 1000 feet AGL
scattered clouds at 2100 feet AGL
Weather: no significant weather observed at this time

METAR text: ULLI 181800Z 17003MPS 150V210 9999 FEW010 BKN021 03/01 Q1007 R28L/290050 NOSIG
Conditions at: ULLI (ST PETERSBURG , RU) observed 1800 UTC 18 March 2019
Temperature: 3.0°C (37°F)
Dewpoint: 1.0°C (34°F) [RH = 87%]
Pressure (altimeter): 29.73 inches Hg (1007.0 mb)
Winds: from the S (170 degrees) at 7 MPH (6 knots; 3.1 m/s)
Visibility: 6 or more miles (10+ km)
Ceiling: 2100 feet AGL
Clouds: few clouds at 1000 feet AGL
broken clouds at 2100 feet AGL
Weather: no significant weather observed at this time

METAR text: ULLI 181730Z 18002MPS 120V250 9999 SCT016 BKN046 03/01 Q1006 R28L/290050 NOSIG
Conditions at: ULLI (ST PETERSBURG , RU) observed 1730 UTC 18 March 2019
Temperature: 3.0°C (37°F)
Dewpoint: 1.0°C (34°F) [RH = 87%]
Pressure (altimeter): 29.70 inches Hg (1006.0 mb)
Winds: from the S (180 degrees) at 5 MPH (4 knots; 2.1 m/s)
Visibility: 6 or more miles (10+ km)
Ceiling: 4600 feet AGL
Clouds: scattered clouds at 1600 feet AGL
broken clouds at 4600 feet AGL
Weather: no significant weather observed at this time

METAR text: ULLI 181700Z 17003MPS 130V220 9999 -SHRA SCT010 BKN023CB OVC043 03/01 Q1006 R28L/290050 NOSIG
Conditions at: ULLI (ST PETERSBURG , RU) observed 1700 UTC 18 March 2019
Temperature: 3.0°C (37°F)
Dewpoint: 1.0°C (34°F) [RH = 87%]
Pressure (altimeter): 29.70 inches Hg (1006.0 mb)
Winds: from the S (170 degrees) at 7 MPH (6 knots; 3.1 m/s)
Visibility: 6 or more miles (10+ km)
Ceiling: 2300 feet AGL
Clouds: scattered clouds at 1000 feet AGL
broken clouds at 2300 feet AGL
overcast cloud deck at 4300 feet AGL
Weather: -SHRA  (light rain showers)

METAR text: ULLI 181630Z 17004MPS 150V210 9999 SCT010 BKN030 03/01 Q1006 R88/290050 NOSIG
Conditions at: ULLI (ST PETERSBURG , RU) observed 1630 UTC 18 March 2019
Temperature: 3.0°C (37°F)
Dewpoint: 1.0°C (34°F) [RH = 87%]
Pressure (altimeter): 29.70 inches Hg (1006.0 mb)
Winds: from the S (170 degrees) at 9 MPH (8 knots; 4.1 m/s)
Visibility: 6 or more miles (10+ km)
Ceiling: 3000 feet AGL
Clouds: scattered clouds at 1000 feet AGL
broken clouds at 3000 feet AGL
Weather: no significant weather observed at this time

METAR text: ULLI 181600Z 16003MPS 140V200 9999 SCT010 BKN030 03/01 Q1005 R88/290050 NOSIG
Conditions at: ULLI (ST PETERSBURG , RU) observed 1600 UTC 18 March 2019
Temperature: 3.0°C (37°F)
Dewpoint: 1.0°C (34°F) [RH = 87%]
Pressure (altimeter): 29.68 inches Hg (1005.0 mb)
Winds: from the SSE (160 degrees) at 7 MPH (6 knots; 3.1 m/s)
Visibility: 6 or more miles (10+ km)
Ceiling: 3000 feet AGL
Clouds: scattered clouds at 1000 feet AGL
broken clouds at 3000 feet AGL
Weather: no significant weather observed at this time

METAR text: ULLI 181530Z 16003MPS 9999 FEW008 SCT022CB OVC038 03/01 Q1005 R88/290050 NOSIG
Conditions at: ULLI (ST PETERSBURG , RU) observed 1530 UTC 18 March 2019
Temperature: 3.0°C (37°F)
Dewpoint: 1.0°C (34°F) [RH = 87%]
Pressure (altimeter): 29.68 inches Hg (1005.0 mb)
Winds: from the SSE (160 degrees) at 7 MPH (6 knots; 3.1 m/s)
Visibility: 6 or more miles (10+ km)
Ceiling: 3800 feet AGL
Clouds: few clouds at 800 feet AGL
scattered clouds at 2200 feet AGL
overcast cloud deck at 3800 feet AGL
Weather: no significant weather observed at this time

METAR text: ULLI 181500Z 18003MPS 130V240 9999 FEW008 SCT022CB OVC038 03/02 Q1005 R88/290050 NOSIG
Conditions at: ULLI (ST PETERSBURG , RU) observed 1500 UTC 18 March 2019
Temperature: 3.0°C (37°F)
Dewpoint: 2.0°C (36°F) [RH = 93%]
Pressure (altimeter): 29.68 inches Hg (1005.0 mb)
Winds: from the S (180 degrees) at 7 MPH (6 knots; 3.1 m/s)
Visibility: 6 or more miles (10+ km)
Ceiling: 3800 feet AGL
Clouds: few clouds at 800 feet AGL
scattered clouds at 2200 feet AGL
overcast cloud deck at 3800 feet AGL
Weather: no significant weather observed at this time

METAR text: ULLI 181430Z 19004MPS 9999 FEW008 BKN046 03/02 Q1005 R88/290050 NOSIG
Conditions at: ULLI (ST PETERSBURG , RU) observed 1430 UTC 18 March 2019
Temperature: 3.0°C (37°F)
Dewpoint: 2.0°C (36°F) [RH = 93%]
Pressure (altimeter): 29.68 inches Hg (1005.0 mb)
Winds: from the S (190 degrees) at 9 MPH (8 knots; 4.1 m/s)
Visibility: 6 or more miles (10+ km)
Ceiling: 4600 feet AGL
Clouds: few clouds at 800 feet AGL
broken clouds at 4600 feet AGL
Weather: no significant weather observed at this time

METAR text: ULLI 181400Z 17004MPS 9999 -SHRA FEW007 BKN021CB OVC040 03/02 Q1004 R88/290050 NOSIG RMK OBST OBSC
Conditions at: ULLI (ST PETERSBURG , RU) observed 1400 UTC 18 March 2019
Temperature: 3.0°C (37°F)
Dewpoint: 2.0°C (36°F) [RH = 93%]
Pressure (altimeter): 29.65 inches Hg (1004.0 mb)
Winds: from the S (170 degrees) at 9 MPH (8 knots; 4.1 m/s)
Visibility: 6 or more miles (10+ km)
Ceiling: 2100 feet AGL
Clouds: few clouds at 700 feet AGL
broken clouds at 2100 feet AGL
overcast cloud deck at 4000 feet AGL
Weather: -SHRA  (light rain showers)

METAR text: ULLI 181330Z 18005MPS 9999 -SHRA FEW007 BKN029CB OVC046 04/02 Q1004 R88/290050 NOSIG RMK OBST OBSC
Conditions at: ULLI (ST PETERSBURG , RU) observed 1330 UTC 18 March 2019
Temperature: 4.0°C (39°F)
Dewpoint: 2.0°C (36°F) [RH = 87%]
Pressure (altimeter): 29.65 inches Hg (1004.0 mb)
Winds: from the S (180 degrees) at 12 MPH (10 knots; 5.1 m/s)
Visibility: 6 or more miles (10+ km)
Ceiling: 2900 feet AGL
Clouds: few clouds at 700 feet AGL
broken clouds at 2900 feet AGL
overcast cloud deck at 4600 feet AGL
Weather: -SHRA  (light rain showers)

METAR text: ULLI 181300Z 18005MPS 150V210 9999 -SHRA SCT007 BKN030CB OVC046 04/02 Q1004 R88/290050 NOSIG RMK OBST OBSC
Conditions at: ULLI (ST PETERSBURG , RU) observed 1300 UTC 18 March 2019
Temperature: 4.0°C (39°F)
Dewpoint: 2.0°C (36°F) [RH = 87%]
Pressure (altimeter): 29.65 inches Hg (1004.0 mb)
Winds: from the S (180 degrees) at 12 MPH (10 knots; 5.1 m/s)
Visibility: 6 or more miles (10+ km)
Ceiling: 3000 feet AGL
Clouds: scattered clouds at 700 feet AGL
broken clouds at 3000 feet AGL
overcast cloud deck at 4600 feet AGL
Weather: -SHRA  (light rain showers)

METAR text: ULLI 181230Z 18003MPS 9999 SCT007 BKN048 04/02 Q1004 R88/290050 NOSIG RMK OBST OBSC
Conditions at: ULLI (ST PETERSBURG , RU) observed 1230 UTC 18 March 2019
Temperature: 4.0°C (39°F)
Dewpoint: 2.0°C (36°F) [RH = 87%]
Pressure (altimeter): 29.65 inches Hg (1004.0 mb)
Winds: from the S (180 degrees) at 7 MPH (6 knots; 3.1 m/s)
Visibility: 6 or more miles (10+ km)
Ceiling: 4800 feet AGL
Clouds: scattered clouds at 700 feet AGL
broken clouds at 4800 feet AGL
Weather: no significant weather observed at this time

METAR text: ULLI 181200Z 19004MPS 9999 SCT007 BKN046 04/02 Q1004 R88/290050 NOSIG
Conditions at: ULLI (ST PETERSBURG , RU) observed 1200 UTC 18 March 2019
Temperature: 4.0°C (39°F)
Dewpoint: 2.0°C (36°F) [RH = 87%]
Pressure (altimeter): 29.65 inches Hg (1004.0 mb)
Winds: from the S (190 degrees) at 9 MPH (8 knots; 4.1 m/s)
Visibility: 6 or more miles (10+ km)
Ceiling: 4600 feet AGL
Clouds: scattered clouds at 700 feet AGL
broken clouds at 4600 feet AGL
Weather: no significant weather observed at this time

METAR text: ULLI 181130Z 16004MPS 120V220 9999 SCT007 BKN043 04/02 Q1003 R88/290050 NOSIG
Conditions at: ULLI (ST PETERSBURG , RU) observed 1130 UTC 18 March 2019
Temperature: 4.0°C (39°F)
Dewpoint: 2.0°C (36°F) [RH = 87%]
Pressure (altimeter): 29.62 inches Hg (1003.0 mb)
Winds: from the SSE (160 degrees) at 9 MPH (8 knots; 4.1 m/s)
Visibility: 6 or more miles (10+ km)
Ceiling: 4300 feet AGL
Clouds: scattered clouds at 700 feet AGL
broken clouds at 4300 feet AGL
Weather: no significant weather observed at this time

METAR text: ULLI 181100Z 17004MPS 9999 SCT007 BKN043 03/02 Q1004 R88/290050 NOSIG
Conditions at: ULLI (ST PETERSBURG , RU) observed 1100 UTC 18 March 2019
Temperature: 3.0°C (37°F)
Dewpoint: 2.0°C (36°F) [RH = 93%]
Pressure (altimeter): 29.65 inches Hg (1004.0 mb)
Winds: from the S (170 degrees) at 9 MPH (8 knots; 4.1 m/s)
Visibility: 6 or more miles (10+ km)
Ceiling: 4300 feet AGL
Clouds: scattered clouds at 700 feet AGL
broken clouds at 4300 feet AGL
Weather: no significant weather observed at this time

METAR text: ULLI 181030Z 18004MPS 9999 -SHRA SCT009 BKN026CB OVC036 03/02 Q1004 R88/290050 NOSIG
Conditions at: ULLI (ST PETERSBURG , RU) observed 1030 UTC 18 March 2019
Temperature: 3.0°C (37°F)
Dewpoint: 2.0°C (36°F) [RH = 93%]
Pressure (altimeter): 29.65 inches Hg (1004.0 mb)
Winds: from the S (180 degrees) at 9 MPH (8 knots; 4.1 m/s)
Visibility: 6 or more miles (10+ km)
Ceiling: 2600 feet AGL
Clouds: scattered clouds at 900 feet AGL
broken clouds at 2600 feet AGL
overcast cloud deck at 3600 feet AGL
Weather: -SHRA  (light rain showers)

METAR text: ULLI 181000Z 18003MPS 9999 -SHRA SCT009 BKN026CB OVC036 03/02 Q1003 R88/290050 NOSIG
Conditions at: ULLI (ST PETERSBURG , RU) observed 1000 UTC 18 March 2019
Temperature: 3.0°C (37°F)
Dewpoint: 2.0°C (36°F) [RH = 93%]
Pressure (altimeter): 29.62 inches Hg (1003.0 mb)
Winds: from the S (180 degrees) at 7 MPH (6 knots; 3.1 m/s)
Visibility: 6 or more miles (10+ km)
Ceiling: 2600 feet AGL
Clouds: scattered clouds at 900 feet AGL
broken clouds at 2600 feet AGL
overcast cloud deck at 3600 feet AGL
Weather: -SHRA  (light rain showers)

METAR text: ULLI 180930Z 18003MPS 150V240 9999 -SHRA SCT009 BKN017CB OVC036 03/02 Q1003 R88/290050 NOSIG
Conditions at: ULLI (ST PETERSBURG , RU) observed 0930 UTC 18 March 2019
Temperature: 3.0°C (37°F)
Dewpoint: 2.0°C (36°F) [RH = 93%]
Pressure (altimeter): 29.62 inches Hg (1003.0 mb)
Winds: from the S (180 degrees) at 7 MPH (6 knots; 3.1 m/s)
Visibility: 6 or more miles (10+ km)
Ceiling: 1700 feet AGL
Clouds: scattered clouds at 900 feet AGL
broken clouds at 1700 feet AGL
overcast cloud deck at 3600 feet AGL
Weather: -SHRA  (light rain showers)

METAR text: ULLI 180900Z 18004MPS 9999 -SHRA SCT006 BKN017CB OVC036 03/02 Q1003 R88/290050 TEMPO 1500 SHSNRA BKN007 BKN016CB RMK OBST OBSC
Conditions at: ULLI (ST PETERSBURG , RU) observed 0900 UTC 18 March 2019
Temperature: 3.0°C (37°F)
Dewpoint: 2.0°C (36°F) [RH = 93%]
Pressure (altimeter): 29.62 inches Hg (1003.0 mb)
Winds: from the S (180 degrees) at 9 MPH (8 knots; 4.1 m/s)
Visibility: 6 or more miles (10+ km)
Ceiling: 1700 feet AGL
Clouds: scattered clouds at 600 feet AGL
broken clouds at 1700 feet AGL
overcast cloud deck at 3600 feet AGL
Weather: -SHRA  (light rain showers)

METAR text: ULLI 180830Z 18005MPS 5000 -SHRA SCT006 BKN022CB OVC036 03/02 Q1003 R88/290050 TEMPO 1500 SHSNRA BKN007 BKN016CB RMK OBST OBSC
Conditions at: ULLI (ST PETERSBURG , RU) observed 0830 UTC 18 March 2019
Temperature: 3.0°C (37°F)
Dewpoint: 2.0°C (36°F) [RH = 93%]
Pressure (altimeter): 29.62 inches Hg (1003.0 mb)
Winds: from the S (180 degrees) at 12 MPH (10 knots; 5.1 m/s)
Visibility: 3 miles ( 5 km)
Ceiling: 2200 feet AGL
Clouds: scattered clouds at 600 feet AGL
broken clouds at 2200 feet AGL
overcast cloud deck at 3600 feet AGL
Weather: -SHRA  (light rain showers)

METAR text: ULLI 180800Z 17005MPS 140V200 9999 -SHRA SCT007 BKN022CB OVC036 03/02 Q1002 R88/290050 TEMPO 1500 SHSNRA BKN007 BKN016CB RMK OBST OBSC
Conditions at: ULLI (ST PETERSBURG , RU) observed 0800 UTC 18 March 2019
Temperature: 3.0°C (37°F)
Dewpoint: 2.0°C (36°F) [RH = 93%]
Pressure (altimeter): 29.59 inches Hg (1002.0 mb)
Winds: from the S (170 degrees) at 12 MPH (10 knots; 5.1 m/s)
Visibility: 6 or more miles (10+ km)
Ceiling: 2200 feet AGL
Clouds: scattered clouds at 700 feet AGL
broken clouds at 2200 feet AGL
overcast cloud deck at 3600 feet AGL
Weather: -SHRA  (light rain showers)

METAR text: ULLI 180730Z 17005MPS 9999 SCT006 BKN022CB OVC036 03/02 Q1002 R88/290050 TEMPO 1500 SHSNRA BKN007 BKN016CB RMK OBST OBSC
Conditions at: ULLI (ST PETERSBURG , RU) observed 0730 UTC 18 March 2019
Temperature: 3.0°C (37°F)
Dewpoint: 2.0°C (36°F) [RH = 93%]
Pressure (altimeter): 29.59 inches Hg (1002.0 mb)
Winds: from the S (170 degrees) at 12 MPH (10 knots; 5.1 m/s)
Visibility: 6 or more miles (10+ km)
Ceiling: 2200 feet AGL
Clouds: scattered clouds at 600 feet AGL
broken clouds at 2200 feet AGL
overcast cloud deck at 3600 feet AGL
Weather: no significant weather observed at this time

METAR text: ULLI 180700Z 17005MPS 9000 -SHRA SCT007 BKN022CB OVC036 03/02 Q1001 R88/290050 TEMPO 1500 SHSNRA BKN007 BKN016CB RMK 10R/16004G07MPS 10L/17005G08MPS
Conditions at: ULLI (ST PETERSBURG , RU) observed 0700 UTC 18 March 2019
Temperature: 3.0°C (37°F)
Dewpoint: 2.0°C (36°F) [RH = 93%]
Pressure (altimeter): 29.56 inches Hg (1001.0 mb)
Winds: from the S (170 degrees) at 12 MPH (10 knots; 5.1 m/s)
Visibility: 6 miles ( 9 km)
Ceiling: 2200 feet AGL
Clouds: scattered clouds at 700 feet AGL
broken clouds at 2200 feet AGL
overcast cloud deck at 3600 feet AGL
Weather: -SHRA  (light rain showers)

METAR text: ULLI 180630Z 17005MPS 9000 -SHRA SCT007 BKN017CB OVC033 03/02 Q1001 R88/290050 TEMPO 1500 SHSNRA BKN007 BKN016CB
Conditions at: ULLI (ST PETERSBURG , RU) observed 0630 UTC 18 March 2019
Temperature: 3.0°C (37°F)
Dewpoint: 2.0°C (36°F) [RH = 93%]
Pressure (altimeter): 29.56 inches Hg (1001.0 mb)
Winds: from the S (170 degrees) at 12 MPH (10 knots; 5.1 m/s)
Visibility: 6 miles ( 9 km)
Ceiling: 1700 feet AGL
Clouds: scattered clouds at 700 feet AGL
broken clouds at 1700 feet AGL
overcast cloud deck at 3300 feet AGL
Weather: -SHRA  (light rain showers)

METAR text: ULLI 180600Z 17005G10MPS 140V200 9999 -DZ OVC007 03/01 Q1001 R88/290050 TEMPO 1500 SHSNRA BKN007 BKN016CB RMK OBST OBSC 10R/17005G10MPS 10L/17007G10MPS
Conditions at: ULLI (ST PETERSBURG , RU) observed 0600 UTC 18 March 2019
Temperature: 3.0°C (37°F)
Dewpoint: 1.0°C (34°F) [RH = 87%]
Pressure (altimeter): 29.56 inches Hg (1001.0 mb)
Winds: from the S (170 degrees) at 12 MPH (10 knots; 5.1 m/s)
gusting to 22 MPH (19 knots; 9.8 m/s)
Visibility: 6 or more miles (10+ km)
Ceiling: 700 feet AGL
Clouds: overcast cloud deck at 700 feet AGL
Weather: -DZ  (light drizzle)

METAR text: ULLI 180530Z 17007MPS 9999 OVC007 03/01 Q1001 R88/290050 TEMPO 1500 SHSNRA BKN007 BKN016CB RMK OBST OBSC
Conditions at: ULLI (ST PETERSBURG , RU) observed 0530 UTC 18 March 2019
Temperature: 3.0°C (37°F)
Dewpoint: 1.0°C (34°F) [RH = 87%]
Pressure (altimeter): 29.56 inches Hg (1001.0 mb)
Winds: from the S (170 degrees) at 16 MPH (14 knots; 7.2 m/s)
Visibility: 6 or more miles (10+ km)
Ceiling: 700 feet AGL
Clouds: overcast cloud deck at 700 feet AGL
Weather: no significant weather observed at this time

METAR text: ULLI 180500Z 16008MPS 9999 OVC007 03/01 Q1000 R88/290050 NOSIG RMK OBST OBSC
Conditions at: ULLI (ST PETERSBURG , RU) observed 0500 UTC 18 March 2019
Temperature: 3.0°C (37°F)
Dewpoint: 1.0°C (34°F) [RH = 87%]
Pressure (altimeter): 29.53 inches Hg (1000.0 mb)
Winds: from the SSE (160 degrees) at 18 MPH (16 knots; 8.2 m/s)
Visibility: 6 or more miles (10+ km)
Ceiling: 700 feet AGL
Clouds: overcast cloud deck at 700 feet AGL
Weather: no significant weather observed at this time

METAR text: ULLI 180430Z 16005MPS 120V230 9999 OVC007 03/01 Q1001 R10R/290050 NOSIG
Conditions at: ULLI (ST PETERSBURG , RU) observed 0430 UTC 18 March 2019
Temperature: 3.0°C (37°F)
Dewpoint: 1.0°C (34°F) [RH = 87%]
Pressure (altimeter): 29.56 inches Hg (1001.0 mb)
Winds: from the SSE (160 degrees) at 12 MPH (10 knots; 5.1 m/s)
Visibility: 6 or more miles (10+ km)
Ceiling: 700 feet AGL
Clouds: overcast cloud deck at 700 feet AGL
Weather: no significant weather observed at this time

METAR text: ULLI 180400Z 17005MPS 120V230 9999 OVC008 03/01 Q1002 R10R/290050 NOSIG
Conditions at: ULLI (ST PETERSBURG , RU) observed 0400 UTC 18 March 2019
Temperature: 3.0°C (37°F)
Dewpoint: 1.0°C (34°F) [RH = 87%]
Pressure (altimeter): 29.59 inches Hg (1002.0 mb)
Winds: from the S (170 degrees) at 12 MPH (10 knots; 5.1 m/s)
Visibility: 6 or more miles (10+ km)
Ceiling: 800 feet AGL
Clouds: overcast cloud deck at 800 feet AGL
Weather: no significant weather observed at this time

METAR text: ULLI 180330Z 14005G10MPS 110V180 9999 OVC008 02/01 Q1000 R10R/290050 NOSIG
Conditions at: ULLI (ST PETERSBURG , RU) observed 0330 UTC 18 March 2019
Temperature: 2.0°C (36°F)
Dewpoint: 1.0°C (34°F) [RH = 93%]
Pressure (altimeter): 29.53 inches Hg (1000.0 mb)
Winds: from the SE (140 degrees) at 12 MPH (10 knots; 5.1 m/s)
gusting to 22 MPH (19 knots; 9.8 m/s)
Visibility: 6 or more miles (10+ km)
Ceiling: 800 feet AGL
Clouds: overcast cloud deck at 800 feet AGL
Weather: no significant weather observed at this time

METAR text: ULLI 180300Z 16005MPS 130V200 9999 OVC008 02/01 Q1001 R10R/290050 NOSIG
Conditions at: ULLI (ST PETERSBURG , RU) observed 0300 UTC 18 March 2019
Temperature: 2.0°C (36°F)
Dewpoint: 1.0°C (34°F) [RH = 93%]
Pressure (altimeter): 29.56 inches Hg (1001.0 mb)
Winds: from the SSE (160 degrees) at 12 MPH (10 knots; 5.1 m/s)
Visibility: 6 or more miles (10+ km)
Ceiling: 800 feet AGL
Clouds: overcast cloud deck at 800 feet AGL
Weather: no significant weather observed at this time

METAR text: ULLI 180230Z 16005MPS 120V200 9999 OVC007 02/01 Q1001 R10R/290050 NOSIG
Conditions at: ULLI (ST PETERSBURG , RU) observed 0230 UTC 18 March 2019
Temperature: 2.0°C (36°F)
Dewpoint: 1.0°C (34°F) [RH = 93%]
Pressure (altimeter): 29.56 inches Hg (1001.0 mb)
Winds: from the SSE (160 degrees) at 12 MPH (10 knots; 5.1 m/s)
Visibility: 6 or more miles (10+ km)
Ceiling: 700 feet AGL
Clouds: overcast cloud deck at 700 feet AGL
Weather: no significant weather observed at this time

METAR text: ULLI 180200Z 16006MPS 120V200 9999 BKN008 OVC020 02/01 Q1001 R10R/290050 NOSIG
Conditions at: ULLI (ST PETERSBURG , RU) observed 0200 UTC 18 March 2019
Temperature: 2.0°C (36°F)
Dewpoint: 1.0°C (34°F) [RH = 93%]
Pressure (altimeter): 29.56 inches Hg (1001.0 mb)
Winds: from the SSE (160 degrees) at 14 MPH (12 knots; 6.2 m/s)
Visibility: 6 or more miles (10+ km)
Ceiling: 800 feet AGL
Clouds: broken clouds at 800 feet AGL
overcast cloud deck at 2000 feet AGL
Weather: no significant weather observed at this time

METAR text: ULLI 180130Z 16005G11MPS 130V200 9999 BKN008 OVC020 02/01 Q1002 R10R/290050 NOSIG
Conditions at: ULLI (ST PETERSBURG , RU) observed 0130 UTC 18 March 2019
Temperature: 2.0°C (36°F)
Dewpoint: 1.0°C (34°F) [RH = 93%]
Pressure (altimeter): 29.59 inches Hg (1002.0 mb)
Winds: from the SSE (160 degrees) at 12 MPH (10 knots; 5.1 m/s)
gusting to 24 MPH (21 knots; 10.8 m/s)
Visibility: 6 or more miles (10+ km)
Ceiling: 800 feet AGL
Clouds: broken clouds at 800 feet AGL
overcast cloud deck at 2000 feet AGL
Weather: no significant weather observed at this time

METAR text: ULLI 180100Z 16006G11MPS 120V190 9999 BKN009 OVC020 02/01 Q1001 R10R/290050 NOSIG
Conditions at: ULLI (ST PETERSBURG , RU) observed 0100 UTC 18 March 2019
Temperature: 2.0°C (36°F)
Dewpoint: 1.0°C (34°F) [RH = 93%]
Pressure (altimeter): 29.56 inches Hg (1001.0 mb)
Winds: from the SSE (160 degrees) at 14 MPH (12 knots; 6.2 m/s)
gusting to 24 MPH (21 knots; 10.8 m/s)
Visibility: 6 or more miles (10+ km)
Ceiling: 900 feet AGL
Clouds: broken clouds at 900 feet AGL
overcast cloud deck at 2000 feet AGL
Weather: no significant weather observed at this time

METAR text: ULLI 180030Z 16006G12MPS 130V200 9999 SCT010 BKN020CB OVC033 02/01 Q1002 R10R/290050 NOSIG
Conditions at: ULLI (ST PETERSBURG , RU) observed 0030 UTC 18 March 2019
Temperature: 2.0°C (36°F)
Dewpoint: 1.0°C (34°F) [RH = 93%]
Pressure (altimeter): 29.59 inches Hg (1002.0 mb)
Winds: from the SSE (160 degrees) at 14 MPH (12 knots; 6.2 m/s)
gusting to 26 MPH (23 knots; 11.8 m/s)
Visibility: 6 or more miles (10+ km)
Ceiling: 2000 feet AGL
Clouds: scattered clouds at 1000 feet AGL
broken clouds at 2000 feet AGL
overcast cloud deck at 3300 feet AGL
Weather: no significant weather observed at this time

METAR text: ULLI 180000Z 15005MPS 130V190 9999 SCT009 BKN020CB OVC033 02/01 Q1002 R10R/290050 NOSIG
Conditions at: ULLI (ST PETERSBURG , RU) observed 0000 UTC 18 March 2019
Temperature: 2.0°C (36°F)
Dewpoint: 1.0°C (34°F) [RH = 93%]
Pressure (altimeter): 29.59 inches Hg (1002.0 mb)
Winds: from the SSE (150 degrees) at 12 MPH (10 knots; 5.1 m/s)
Visibility: 6 or more miles (10+ km)
Ceiling: 2000 feet AGL
Clouds: scattered clouds at 900 feet AGL
broken clouds at 2000 feet AGL
overcast cloud deck at 3300 feet AGL
Weather: no significant weather observed at this time

METAR text: ULLI 172330Z 15005MPS 120V190 7000 -SHRA SCT011 BKN020CB OVC033 02/00 Q1002 WS R10R R10R/290050 NOSIG
Conditions at: ULLI (ST PETERSBURG , RU) observed 2330 UTC 17 March 2019
Temperature: 2.0°C (36°F)
Dewpoint: 0.0°C (32°F) [RH = 87%]
Pressure (altimeter): 29.59 inches Hg (1002.0 mb)
Winds: from the SSE (150 degrees) at 12 MPH (10 knots; 5.1 m/s)
Visibility: 4 miles ( 7 km)
Ceiling: 2000 feet AGL
Clouds: scattered clouds at 1100 feet AGL
broken clouds at 2000 feet AGL
overcast cloud deck at 3300 feet AGL
Weather: -SHRA  (light rain showers)

METAR text: ULLI 172300Z 15005MPS 130V200 9999 -SHRA FEW012 SCT020CB OVC033 02/00 Q1002 R10R/290050 NOSIG
Conditions at: ULLI (ST PETERSBURG , RU) observed 2300 UTC 17 March 2019
Temperature: 2.0°C (36°F)
Dewpoint: 0.0°C (32°F) [RH = 87%]
Pressure (altimeter): 29.59 inches Hg (1002.0 mb)
Winds: from the SSE (150 degrees) at 12 MPH (10 knots; 5.1 m/s)
Visibility: 6 or more miles (10+ km)
Ceiling: 3300 feet AGL
Clouds: few clouds at 1200 feet AGL
scattered clouds at 2000 feet AGL
overcast cloud deck at 3300 feet AGL
Weather: -SHRA  (light rain showers)

METAR text: ULLI 172230Z 15005MPS 120V190 9000 -SHRA SCT018CB BKN033 02/M00 Q1002 R10R/290050 NOSIG
Conditions at: ULLI (ST PETERSBURG , RU) observed 2230 UTC 17 March 2019
Temperature: 2.0°C (36°F)
Dewpoint: 0.0°C (32°F) [RH = 87%]
Pressure (altimeter): 29.59 inches Hg (1002.0 mb)
Winds: from the SSE (150 degrees) at 12 MPH (10 knots; 5.1 m/s)
Visibility: 6 miles ( 9 km)
Ceiling: 3300 feet AGL
Clouds: scattered clouds at 1800 feet AGL
broken clouds at 3300 feet AGL
Weather: -SHRA  (light rain showers)

METAR text: ULLI 172200Z 16005MPS 120V200 9999 -SHRA SCT018CB BKN036 03/M00 Q1002 R10R/290050 NOSIG
Conditions at: ULLI (ST PETERSBURG , RU) observed 2200 UTC 17 March 2019
Temperature: 3.0°C (37°F)
Dewpoint: 0.0°C (32°F) [RH = 81%]
Pressure (altimeter): 29.59 inches Hg (1002.0 mb)
Winds: from the SSE (160 degrees) at 12 MPH (10 knots; 5.1 m/s)
Visibility: 6 or more miles (10+ km)
Ceiling: 3600 feet AGL
Clouds: scattered clouds at 1800 feet AGL
broken clouds at 3600 feet AGL
Weather: -SHRA  (light rain showers)

METAR text: ULLI 172130Z 15005G10MPS 120V200 9999 -SHRA SCT018CB BKN036 03/M00 Q1003 R10R/290050 NOSIG
Conditions at: ULLI (ST PETERSBURG , RU) observed 2130 UTC 17 March 2019
Temperature: 3.0°C (37°F)
Dewpoint: 0.0°C (32°F) [RH = 81%]
Pressure (altimeter): 29.62 inches Hg (1003.0 mb)
Winds: from the SSE (150 degrees) at 12 MPH (10 knots; 5.1 m/s)
gusting to 22 MPH (19 knots; 9.8 m/s)
Visibility: 6 or more miles (10+ km)
Ceiling: 3600 feet AGL
Clouds: scattered clouds at 1800 feet AGL
broken clouds at 3600 feet AGL
Weather: -SHRA  (light rain showers)

METAR text: ULLI 172100Z 15005MPS 120V200 9999 OVC018 03/M00 Q1003 R10R/190055 NOSIG
Conditions at: ULLI (ST PETERSBURG , RU) observed 2100 UTC 17 March 2019
Temperature: 3.0°C (37°F)
Dewpoint: 0.0°C (32°F) [RH = 81%]
Pressure (altimeter): 29.62 inches Hg (1003.0 mb)
Winds: from the SSE (150 degrees) at 12 MPH (10 knots; 5.1 m/s)
Visibility: 6 or more miles (10+ km)
Ceiling: 1800 feet AGL
Clouds: overcast cloud deck at 1800 feet AGL
Weather: no significant weather observed at this time

METAR text: ULLI 172030Z 14004G10MPS 110V180 9999 BKN018 03/M00 Q1003 R10R/190055 NOSIG
Conditions at: ULLI (ST PETERSBURG , RU) observed 2030 UTC 17 March 2019
Temperature: 3.0°C (37°F)
Dewpoint: 0.0°C (32°F) [RH = 81%]
Pressure (altimeter): 29.62 inches Hg (1003.0 mb)
Winds: from the SE (140 degrees) at 9 MPH (8 knots; 4.1 m/s)
gusting to 22 MPH (19 knots; 9.8 m/s)
Visibility: 6 or more miles (10+ km)
Ceiling: 1800 feet AGL
Clouds: broken clouds at 1800 feet AGL
Weather: no significant weather observed at this time

METAR text: ULLI 172000Z 14005MPS 9999 BKN018 03/M00 Q1003 R10R/190055 NOSIG
Conditions at: ULLI (ST PETERSBURG , RU) observed 2000 UTC 17 March 2019
Temperature: 3.0°C (37°F)
Dewpoint: 0.0°C (32°F) [RH = 81%]
Pressure (altimeter): 29.62 inches Hg (1003.0 mb)
Winds: from the SE (140 degrees) at 12 MPH (10 knots; 5.1 m/s)
Visibility: 6 or more miles (10+ km)
Ceiling: 1800 feet AGL
Clouds: broken clouds at 1800 feet AGL
Weather: no significant weather observed at this time

METAR text: ULLI 171930Z 15005MPS 9999 BKN026 03/M00 Q1004 R10R/190055 NOSIG
Conditions at: ULLI (ST PETERSBURG , RU) observed 1930 UTC 17 March 2019
Temperature: 3.0°C (37°F)
Dewpoint: 0.0°C (32°F) [RH = 81%]
Pressure (altimeter): 29.65 inches Hg (1004.0 mb)
Winds: from the SSE (150 degrees) at 12 MPH (10 knots; 5.1 m/s)
Visibility: 6 or more miles (10+ km)
Ceiling: 2600 feet AGL
Clouds: broken clouds at 2600 feet AGL
Weather: no significant weather observed at this time

METAR text: ULLI 171900Z 15004MPS 110V200 9999 BKN026 03/M01 Q1004 R10R/190055 NOSIG
Conditions at: ULLI (ST PETERSBURG , RU) observed 1900 UTC 17 March 2019
Temperature: 3.0°C (37°F)
Dewpoint: -1.0°C (30°F) [RH = 75%]
Pressure (altimeter): 29.65 inches Hg (1004.0 mb)
Winds: from the SSE (150 degrees) at 9 MPH (8 knots; 4.1 m/s)
Visibility: 6 or more miles (10+ km)
Ceiling: 2600 feet AGL
Clouds: broken clouds at 2600 feet AGL
Weather: no significant weather observed at this time

METAR text: ULLI 171830Z 15005MPS 120V190 9999 BKN030 03/M01 Q1004 R10R/190055 NOSIG
Conditions at: ULLI (ST PETERSBURG , RU) observed 1830 UTC 17 March 2019
Temperature: 3.0°C (37°F)
Dewpoint: -1.0°C (30°F) [RH = 75%]
Pressure (altimeter): 29.65 inches Hg (1004.0 mb)
Winds: from the SSE (150 degrees) at 12 MPH (10 knots; 5.1 m/s)
Visibility: 6 or more miles (10+ km)
Ceiling: 3000 feet AGL
Clouds: broken clouds at 3000 feet AGL
Weather: no significant weather observed at this time

METAR text: ULLI 171800Z 14005MPS 120V180 9999 BKN035 02/M01 Q1004 R10R/190055 NOSIG
Conditions at: ULLI (ST PETERSBURG , RU) observed 1800 UTC 17 March 2019
Temperature: 2.0°C (36°F)
Dewpoint: -1.0°C (30°F) [RH = 80%]
Pressure (altimeter): 29.65 inches Hg (1004.0 mb)
Winds: from the SE (140 degrees) at 12 MPH (10 knots; 5.1 m/s)
Visibility: 6 or more miles (10+ km)
Ceiling: 3500 feet AGL
Clouds: broken clouds at 3500 feet AGL
Weather: no significant weather observed at this time

METAR text: ULLI 171730Z 13004MPS 100V170 CAVOK 02/M01 Q1004 R10R/190055 NOSIG
Conditions at: ULLI (ST PETERSBURG , RU) observed 1730 UTC 17 March 2019
Temperature: 2.0°C (36°F)
Dewpoint: -1.0°C (30°F) [RH = 80%]
Pressure (altimeter): 29.65 inches Hg (1004.0 mb)
Winds: from the SE (130 degrees) at 9 MPH (8 knots; 4.1 m/s)
Visibility: 6 or more miles (10+ km)
Ceiling: ceiling and visibility are OK
Clouds: unknown
Weather: no significant weather observed at this time

Forecast for: ULLI (ST PETERSBURG , RU)
Text: TAF ULLI 190459Z 1906/2006 14006MPS 6000 BKN008
Forecast period: 0600 to 0900 UTC 19 March 2019
Forecast type: FROM: standard forecast or significant change
Winds: from the SE (140 degrees) at 14 MPH (12 knots; 6.2 m/s)
Visibility: 4 miles (6 km)
Ceiling: 800 feet AGL
Clouds: broken clouds at 800 feet AGL
Weather: no significant weather forecast for this period
Text: TEMPO 1906/1909 16006MPS 3100 -SHSNRA BKN007 BKN015CB
Forecast period: 0600 to 0900 UTC 19 March 2019
Forecast type: TEMPORARY: The following changes expected for less than half the time period
Winds: from the SSE (160 degrees) at 14 MPH (12 knots; 6.2 m/s)
Visibility: 1.93 miles (3.11 km)
Ceiling: 700 feet AGL
Clouds: broken clouds at 700 feet AGL
broken clouds at 1500 feet AGL
Weather: -SHSN -SHRA  (light snow showers, light rain showers)
Text: FM190900 18006MPS 6000 BKN011
Forecast period: 0900 to 1800 UTC 19 March 2019
Forecast type: FROM: standard forecast or significant change
Winds: from the S (180 degrees) at 14 MPH (12 knots; 6.2 m/s)
Visibility: 4 miles (6 km)
Ceiling: 1100 feet AGL
Clouds: broken clouds at 1100 feet AGL
Weather: no significant weather forecast for this period
Text: TEMPO 1909/1918 3100 -SHRASN BKN010 BKN015CB
Forecast period: 0900 to 1800 UTC 19 March 2019
Forecast type: TEMPORARY: The following changes expected for less than half the time period
Visibility: 1.93 miles (3.11 km)
Ceiling: 1000 feet AGL
Clouds: broken clouds at 1000 feet AGL
broken clouds at 1500 feet AGL
Weather: -SHRA -SHSN  (light rain showers, light snow showers)
Text: BECMG 1918/1920 23003MPS
Forecast period: 1800 UTC 19 March 2019 to 0600 UTC 20 March 2019
Forecast type: BECOMING: Conditions expected to become as follows by 2000 UTC 19 March 2019
Winds: from the SW (230 degrees) at 7 MPH (6 knots; 3.1 m/s)
Visibility: 4 miles (6 km)
Ceiling: 1100 feet AGL
Clouds: broken clouds at 1100 feet AGL
Weather: no significant weather forecast for this period
Text: TEMPO 1919/2006 26003MPS 3100 -SHSNRA BKN004 BKN015CB
Forecast period: 1900 UTC 19 March 2019 to 0600 UTC 20 March 2019
Forecast type: TEMPORARY: The following changes expected for less than half the time period
Winds: from the W (260 degrees) at 7 MPH (6 knots; 3.1 m/s)
Visibility: 1.93 miles (3.11 km)
Ceiling: 400 feet AGL
Clouds: broken clouds at 400 feet AGL
broken clouds at 1500 feet AGL
Weather: -SHSN -SHRA  (light snow showers, light rain showers)